9G8 weather

Ebensburg Airport
Ebensburg, Pennsylvania, United States

Public forecast

Using degrees Fahrenheit for public forecast. Weather courtesy of forecast.io.

Closest aviation weather report (METAR) to Ebensburg Airport

Closest report is John Murtha Johnstown Cambria County Airport, 9.1 nm (16.9 km) SSW. Retrieved 2019/11/15 08:54 UTC (9 minutes ago):

KJST 150854Z AUTO 26009KT 10SM CLR M01/M08 A3017 RMK AO2 SLP239 T10061078 58003

Closest aviation forecast (TAF) to Ebensburg Airport

Closest forecast is John Murtha Johnstown Cambria County Airport, 9.1 nm (16.9 km) SSW. Retrieved 2019/11/15 06:24 UTC (3 hours ago):

TAF KJST 150522Z 1506/1606 26007KT P6SM SKC FM151500 26009KT P6SM SKC